sensor_id;sensor_type;location;lat;lon;timestamp;temperature;humidity
14097;DHT22;7125;48.106;11.544;2023-03-31T00:00:17;6.20;99.90
14097;DHT22;7125;48.106;11.544;2023-03-31T00:02:55;6.20;99.90
14097;DHT22;7125;48.106;11.544;2023-03-31T00:05:38;6.10;99.90
14097;DHT22;7125;48.106;11.544;2023-03-31T00:08:19;6.10;99.90
14097;DHT22;7125;48.106;11.544;2023-03-31T00:10:49;6.20;99.90
14097;DHT22;7125;48.106;11.544;2023-03-31T00:13:21;6.30;99.90
14097;DHT22;7125;48.106;11.544;2023-03-31T00:15:56;6.30;99.90
14097;DHT22;7125;48.106;11.544;2023-03-31T00:18:40;6.30;99.90
14097;DHT22;7125;48.106;11.544;2023-03-31T00:21:17;6.40;99.90
14097;DHT22;7125;48.106;11.544;2023-03-31T00:24:02;6.40;99.90
14097;DHT22;7125;48.106;11.544;2023-03-31T00:26:43;6.40;99.90
14097;DHT22;7125;48.106;11.544;2023-03-31T00:29:12;6.40;99.90
14097;DHT22;7125;48.106;11.544;2023-03-31T00:31:50;6.40;99.90
14097;DHT22;7125;48.106;11.544;2023-03-31T00:34:23;6.40;99.90
14097;DHT22;7125;48.106;11.544;2023-03-31T00:36:55;6.40;99.90
14097;DHT22;7125;48.106;11.544;2023-03-31T00:39:35;6.50;99.90
14097;DHT22;7125;48.106;11.544;2023-03-31T00:42:05;6.40;99.90
14097;DHT22;7125;48.106;11.544;2023-03-31T00:45:30;6.50;99.90
14097;DHT22;7125;48.106;11.544;2023-03-31T00:48:06;6.50;99.90
14097;DHT22;7125;48.106;11.544;2023-03-31T00:50:53;6.50;99.90
14097;DHT22;7125;48.106;11.544;2023-03-31T00:53:34;6.60;99.90
14097;DHT22;7125;48.106;11.544;2023-03-31T00:56:39;6.60;99.90
14097;DHT22;7125;48.106;11.544;2023-03-31T00:59:43;6.70;99.90
14097;DHT22;7125;48.106;11.544;2023-03-31T01:02:19;6.70;99.90
14097;DHT22;7125;48.106;11.544;2023-03-31T01:04:53;6.70;99.90
14097;DHT22;7125;48.106;11.544;2023-03-31T01:07:33;6.80;99.90
14097;DHT22;7125;48.106;11.544;2023-03-31T01:10:04;6.80;99.90
14097;DHT22;7125;48.106;11.544;2023-03-31T01:12:36;6.80;99.90
14097;DHT22;7125;48.106;11.544;2023-03-31T01:15:08;6.80;99.90
14097;DHT22;7125;48.106;11.544;2023-03-31T01:17:39;6.90;99.90
14097;DHT22;7125;48.106;11.544;2023-03-31T01:20:28;6.90;99.90
14097;DHT22;7125;48.106;11.544;2023-03-31T01:33:13;6.90;99.90
14097;DHT22;7125;48.106;11.544;2023-03-31T01:36:20;6.80;99.90
14097;DHT22;7125;48.106;11.544;2023-03-31T01:42:13;6.70;99.90
14097;DHT22;7125;48.106;11.544;2023-03-31T01:44:48;6.70;99.90
14097;DHT22;7125;48.106;11.544;2023-03-31T01:47:26;6.70;99.90
14097;DHT22;7125;48.106;11.544;2023-03-31T01:50:16;6.70;99.90
14097;DHT22;7125;48.106;11.544;2023-03-31T01:52:55;6.70;99.90
14097;DHT22;7125;48.106;11.544;2023-03-31T01:55:29;6.80;99.90
14097;DHT22;7125;48.106;11.544;2023-03-31T01:58:18;6.80;99.90
14097;DHT22;7125;48.106;11.544;2023-03-31T02:00:59;6.90;99.90
14097;DHT22;7125;48.106;11.544;2023-03-31T02:03:32;6.90;99.90
14097;DHT22;7125;48.106;11.544;2023-03-31T02:06:08;6.90;99.90
14097;DHT22;7125;48.106;11.544;2023-03-31T02:08:40;7.00;99.90
14097;DHT22;7125;48.106;11.544;2023-03-31T02:11:09;7.10;99.90
14097;DHT22;7125;48.106;11.544;2023-03-31T02:13:40;7.10;99.90
14097;DHT22;7125;48.106;11.544;2023-03-31T02:16:21;7.20;99.90
14097;DHT22;7125;48.106;11.544;2023-03-31T02:19:01;7.20;99.90
14097;DHT22;7125;48.106;11.544;2023-03-31T02:21:33;7.30;99.90
14097;DHT22;7125;48.106;11.544;2023-03-31T02:24:10;7.30;99.90
14097;DHT22;7125;48.106;11.544;2023-03-31T02:26:52;7.40;99.90
14097;DHT22;7125;48.106;11.544;2023-03-31T02:29:22;7.40;99.90
14097;DHT22;7125;48.106;11.544;2023-03-31T02:32:05;7.40;99.90
14097;DHT22;7125;48.106;11.544;2023-03-31T02:34:36;7.50;99.90
14097;DHT22;7125;48.106;11.544;2023-03-31T02:37:12;7.50;99.90
14097;DHT22;7125;48.106;11.544;2023-03-31T02:39:47;7.60;99.90
14097;DHT22;7125;48.106;11.544;2023-03-31T02:42:19;7.60;99.90
14097;DHT22;7125;48.106;11.544;2023-03-31T02:45:42;7.70;99.90
14097;DHT22;7125;48.106;11.544;2023-03-31T02:48:14;7.60;99.90
14097;DHT22;7125;48.106;11.544;2023-03-31T02:50:59;7.60;99.90
14097;DHT22;7125;48.106;11.544;2023-03-31T02:53:47;7.70;99.90
14097;DHT22;7125;48.106;11.544;2023-03-31T02:56:28;7.60;99.90
14097;DHT22;7125;48.106;11.544;2023-03-31T02:59:17;7.60;99.90
14097;DHT22;7125;48.106;11.544;2023-03-31T03:02:10;7.50;99.90
14097;DHT22;7125;48.106;11.544;2023-03-31T03:05:04;7.50;99.90
14097;DHT22;7125;48.106;11.544;2023-03-31T03:07:45;7.50;99.90
14097;DHT22;7125;48.106;11.544;2023-03-31T03:10:39;7.50;99.90
14097;DHT22;7125;48.106;11.544;2023-03-31T03:13:21;7.50;99.90
14097;DHT22;7125;48.106;11.544;2023-03-31T03:15:59;7.40;99.90
14097;DHT22;7125;48.106;11.544;2023-03-31T03:18:35;7.40;99.90
14097;DHT22;7125;48.106;11.544;2023-03-31T03:21:06;7.40;99.90
14097;DHT22;7125;48.106;11.544;2023-03-31T03:23:37;7.40;99.90
14097;DHT22;7125;48.106;11.544;2023-03-31T03:26:08;7.40;99.90
14097;DHT22;7125;48.106;11.544;2023-03-31T03:28:36;7.40;99.90
14097;DHT22;7125;48.106;11.544;2023-03-31T03:31:05;7.40;99.90
14097;DHT22;7125;48.106;11.544;2023-03-31T03:33:36;7.40;99.90
14097;DHT22;7125;48.106;11.544;2023-03-31T03:36:06;7.40;99.90
14097;DHT22;7125;48.106;11.544;2023-03-31T03:38:33;7.40;99.90
14097;DHT22;7125;48.106;11.544;2023-03-31T03:41:01;7.50;99.90
14097;DHT22;7125;48.106;11.544;2023-03-31T03:43:28;7.50;99.90
14097;DHT22;7125;48.106;11.544;2023-03-31T03:45:55;7.50;99.90
14097;DHT22;7125;48.106;11.544;2023-03-31T03:48:22;7.60;99.90
14097;DHT22;7125;48.106;11.544;2023-03-31T03:50:51;7.60;99.90
14097;DHT22;7125;48.106;11.544;2023-03-31T03:53:19;7.70;99.90
14097;DHT22;7125;48.106;11.544;2023-03-31T03:55:46;7.70;99.90
14097;DHT22;7125;48.106;11.544;2023-03-31T03:58:14;7.70;99.90
14097;DHT22;7125;48.106;11.544;2023-03-31T04:00:42;7.80;99.90
14097;DHT22;7125;48.106;11.544;2023-03-31T04:03:10;7.80;99.90
14097;DHT22;7125;48.106;11.544;2023-03-31T04:05:37;7.80;99.90
14097;DHT22;7125;48.106;11.544;2023-03-31T04:08:05;7.80;99.90
14097;DHT22;7125;48.106;11.544;2023-03-31T04:10:33;7.80;99.90
14097;DHT22;7125;48.106;11.544;2023-03-31T04:13:01;7.80;99.90
14097;DHT22;7125;48.106;11.544;2023-03-31T04:15:28;7.80;99.90
14097;DHT22;7125;48.106;11.544;2023-03-31T04:17:55;7.70;99.90
14097;DHT22;7125;48.106;11.544;2023-03-31T04:20:24;7.70;99.90
14097;DHT22;7125;48.106;11.544;2023-03-31T04:22:52;7.70;99.90
14097;DHT22;7125;48.106;11.544;2023-03-31T04:25:21;7.70;99.90
14097;DHT22;7125;48.106;11.544;2023-03-31T04:27:49;7.70;99.90
14097;DHT22;7125;48.106;11.544;2023-03-31T04:30:19;7.70;99.90
14097;DHT22;7125;48.106;11.544;2023-03-31T04:32:49;7.70;99.90
14097;DHT22;7125;48.106;11.544;2023-03-31T04:35:18;7.60;99.90
14097;DHT22;7125;48.106;11.544;2023-03-31T04:37:46;7.60;99.90
14097;DHT22;7125;48.106;11.544;2023-03-31T04:40:13;7.60;99.90
14097;DHT22;7125;48.106;11.544;2023-03-31T04:42:43;7.60;99.90
14097;DHT22;7125;48.106;11.544;2023-03-31T04:45:10;7.60;99.90
14097;DHT22;7125;48.106;11.544;2023-03-31T04:47:37;7.60;99.90
14097;DHT22;7125;48.106;11.544;2023-03-31T04:50:06;7.60;99.90
14097;DHT22;7125;48.106;11.544;2023-03-31T04:52:33;7.60;99.90
14097;DHT22;7125;48.106;11.544;2023-03-31T04:55:00;7.70;99.90
14097;DHT22;7125;48.106;11.544;2023-03-31T04:57:27;7.70;99.90
14097;DHT22;7125;48.106;11.544;2023-03-31T04:59:55;7.60;99.90
14097;DHT22;7125;48.106;11.544;2023-03-31T05:02:22;7.60;99.90
14097;DHT22;7125;48.106;11.544;2023-03-31T05:04:50;7.60;99.90
14097;DHT22;7125;48.106;11.544;2023-03-31T05:07:17;7.60;99.90
14097;DHT22;7125;48.106;11.544;2023-03-31T05:09:43;7.60;99.90
14097;DHT22;7125;48.106;11.544;2023-03-31T05:12:11;7.50;99.90
14097;DHT22;7125;48.106;11.544;2023-03-31T05:14:38;7.60;99.90
14097;DHT22;7125;48.106;11.544;2023-03-31T05:17:06;7.50;99.90
14097;DHT22;7125;48.106;11.544;2023-03-31T05:19:33;7.60;99.90
14097;DHT22;7125;48.106;11.544;2023-03-31T05:22:00;7.50;99.90
14097;DHT22;7125;48.106;11.544;2023-03-31T05:24:27;7.50;99.90
14097;DHT22;7125;48.106;11.544;2023-03-31T05:26:54;7.50;99.90
14097;DHT22;7125;48.106;11.544;2023-03-31T05:29:22;7.50;99.90
14097;DHT22;7125;48.106;11.544;2023-03-31T05:31:49;7.50;99.90
14097;DHT22;7125;48.106;11.544;2023-03-31T05:34:19;7.50;99.90
14097;DHT22;7125;48.106;11.544;2023-03-31T05:36:47;7.50;99.90
14097;DHT22;7125;48.106;11.544;2023-03-31T05:39:18;7.50;99.90
14097;DHT22;7125;48.106;11.544;2023-03-31T05:41:44;7.60;99.90
14097;DHT22;7125;48.106;11.544;2023-03-31T05:44:11;7.60;99.90
14097;DHT22;7125;48.106;11.544;2023-03-31T05:46:39;7.60;99.90
14097;DHT22;7125;48.106;11.544;2023-03-31T05:49:06;7.60;99.90
14097;DHT22;7125;48.106;11.544;2023-03-31T05:51:35;7.70;99.90
14097;DHT22;7125;48.106;11.544;2023-03-31T05:54:02;7.70;99.90
14097;DHT22;7125;48.106;11.544;2023-03-31T05:56:30;7.80;99.90
14097;DHT22;7125;48.106;11.544;2023-03-31T05:58:59;7.90;99.90
14097;DHT22;7125;48.106;11.544;2023-03-31T06:01:26;7.90;99.90
14097;DHT22;7125;48.106;11.544;2023-03-31T06:03:55;8.00;99.90
14097;DHT22;7125;48.106;11.544;2023-03-31T06:06:22;8.00;99.90
14097;DHT22;7125;48.106;11.544;2023-03-31T06:08:51;8.00;99.90
14097;DHT22;7125;48.106;11.544;2023-03-31T06:11:20;8.10;99.90
14097;DHT22;7125;48.106;11.544;2023-03-31T06:13:47;8.30;99.90
14097;DHT22;7125;48.106;11.544;2023-03-31T06:16:16;8.40;99.90
14097;DHT22;7125;48.106;11.544;2023-03-31T06:18:43;8.40;99.90
14097;DHT22;7125;48.106;11.544;2023-03-31T06:21:11;8.50;99.90
14097;DHT22;7125;48.106;11.544;2023-03-31T06:23:38;8.40;99.90
14097;DHT22;7125;48.106;11.544;2023-03-31T06:26:07;8.50;99.90
14097;DHT22;7125;48.106;11.544;2023-03-31T06:28:35;8.60;99.90
14097;DHT22;7125;48.106;11.544;2023-03-31T06:31:03;8.60;99.90
14097;DHT22;7125;48.106;11.544;2023-03-31T06:33:31;8.60;99.90
14097;DHT22;7125;48.106;11.544;2023-03-31T06:35:58;8.60;99.90
14097;DHT22;7125;48.106;11.544;2023-03-31T06:38:27;8.70;99.90
14097;DHT22;7125;48.106;11.544;2023-03-31T06:40:53;8.70;99.90
14097;DHT22;7125;48.106;11.544;2023-03-31T06:43:22;8.80;99.90
14097;DHT22;7125;48.106;11.544;2023-03-31T06:45:49;8.90;99.90
14097;DHT22;7125;48.106;11.544;2023-03-31T06:48:16;9.00;99.90
14097;DHT22;7125;48.106;11.544;2023-03-31T06:50:43;9.00;99.90
14097;DHT22;7125;48.106;11.544;2023-03-31T06:53:10;9.20;99.90
14097;DHT22;7125;48.106;11.544;2023-03-31T06:55:37;9.20;99.90
14097;DHT22;7125;48.106;11.544;2023-03-31T06:58:05;9.20;99.90
14097;DHT22;7125;48.106;11.544;2023-03-31T07:00:33;9.30;99.90
14097;DHT22;7125;48.106;11.544;2023-03-31T07:03:00;9.20;99.90
14097;DHT22;7125;48.106;11.544;2023-03-31T07:05:29;9.30;99.90
14097;DHT22;7125;48.106;11.544;2023-03-31T07:07:58;9.30;99.90
14097;DHT22;7125;48.106;11.544;2023-03-31T07:10:27;9.20;99.90
14097;DHT22;7125;48.106;11.544;2023-03-31T07:12:54;9.10;99.90
14097;DHT22;7125;48.106;11.544;2023-03-31T07:15:22;9.10;99.90
14097;DHT22;7125;48.106;11.544;2023-03-31T07:17:51;9.00;99.90
14097;DHT22;7125;48.106;11.544;2023-03-31T07:20:18;8.90;99.90
14097;DHT22;7125;48.106;11.544;2023-03-31T07:22:47;8.80;99.90
14097;DHT22;7125;48.106;11.544;2023-03-31T07:25:16;8.70;99.90
14097;DHT22;7125;48.106;11.544;2023-03-31T07:27:43;8.70;99.90
14097;DHT22;7125;48.106;11.544;2023-03-31T07:30:12;8.70;99.90
14097;DHT22;7125;48.106;11.544;2023-03-31T07:32:39;8.70;99.90
14097;DHT22;7125;48.106;11.544;2023-03-31T07:35:09;8.70;99.90
14097;DHT22;7125;48.106;11.544;2023-03-31T07:37:37;8.60;99.90
14097;DHT22;7125;48.106;11.544;2023-03-31T07:40:05;8.60;99.90
14097;DHT22;7125;48.106;11.544;2023-03-31T07:42:33;8.60;99.90
14097;DHT22;7125;48.106;11.544;2023-03-31T07:45:00;8.60;99.90
14097;DHT22;7125;48.106;11.544;2023-03-31T07:47:31;8.60;99.90
14097;DHT22;7125;48.106;11.544;2023-03-31T07:49:58;8.60;99.90
14097;DHT22;7125;48.106;11.544;2023-03-31T07:52:26;8.70;99.90
14097;DHT22;7125;48.106;11.544;2023-03-31T07:54:53;8.70;99.90
14097;DHT22;7125;48.106;11.544;2023-03-31T07:57:20;8.70;99.90
14097;DHT22;7125;48.106;11.544;2023-03-31T07:59:47;8.70;99.90
14097;DHT22;7125;48.106;11.544;2023-03-31T08:02:16;8.70;99.90
14097;DHT22;7125;48.106;11.544;2023-03-31T08:04:44;8.80;99.90
14097;DHT22;7125;48.106;11.544;2023-03-31T08:07:12;8.90;99.90
14097;DHT22;7125;48.106;11.544;2023-03-31T08:09:43;9.00;99.90
14097;DHT22;7125;48.106;11.544;2023-03-31T08:12:10;9.20;99.90
14097;DHT22;7125;48.106;11.544;2023-03-31T08:14:37;9.40;99.90
14097;DHT22;7125;48.106;11.544;2023-03-31T08:17:04;9.50;99.90
14097;DHT22;7125;48.106;11.544;2023-03-31T08:19:31;9.50;99.90
14097;DHT22;7125;48.106;11.544;2023-03-31T08:21:58;9.40;99.90
14097;DHT22;7125;48.106;11.544;2023-03-31T08:24:27;9.30;99.90
14097;DHT22;7125;48.106;11.544;2023-03-31T08:26:55;9.20;99.90
14097;DHT22;7125;48.106;11.544;2023-03-31T08:29:23;9.20;99.90
14097;DHT22;7125;48.106;11.544;2023-03-31T08:31:50;9.30;99.90
14097;DHT22;7125;48.106;11.544;2023-03-31T08:34:17;9.30;99.90
14097;DHT22;7125;48.106;11.544;2023-03-31T08:36:44;9.30;99.90
14097;DHT22;7125;48.106;11.544;2023-03-31T08:39:12;9.30;99.90
14097;DHT22;7125;48.106;11.544;2023-03-31T08:41:46;9.30;99.90
14097;DHT22;7125;48.106;11.544;2023-03-31T08:44:20;9.30;99.90
14097;DHT22;7125;48.106;11.544;2023-03-31T08:46:50;9.30;99.90
14097;DHT22;7125;48.106;11.544;2023-03-31T08:49:20;9.30;99.90
14097;DHT22;7125;48.106;11.544;2023-03-31T08:51:50;9.30;99.90
14097;DHT22;7125;48.106;11.544;2023-03-31T08:54:26;9.20;99.90
14097;DHT22;7125;48.106;11.544;2023-03-31T08:56:54;9.20;99.90
14097;DHT22;7125;48.106;11.544;2023-03-31T08:59:26;9.20;99.90
14097;DHT22;7125;48.106;11.544;2023-03-31T09:01:59;9.30;99.90
14097;DHT22;7125;48.106;11.544;2023-03-31T09:04:53;9.30;99.90
14097;DHT22;7125;48.106;11.544;2023-03-31T09:07:29;9.30;99.90
14097;DHT22;7125;48.106;11.544;2023-03-31T09:10:18;9.40;99.90
14097;DHT22;7125;48.106;11.544;2023-03-31T09:12:51;9.50;99.90
14097;DHT22;7125;48.106;11.544;2023-03-31T09:15:27;9.50;99.90
14097;DHT22;7125;48.106;11.544;2023-03-31T09:17:58;9.50;99.90
14097;DHT22;7125;48.106;11.544;2023-03-31T09:20:31;9.60;99.90
14097;DHT22;7125;48.106;11.544;2023-03-31T09:23:01;9.70;99.90
14097;DHT22;7125;48.106;11.544;2023-03-31T09:25:34;9.90;99.90
14097;DHT22;7125;48.106;11.544;2023-03-31T09:28:03;10.10;99.90
14097;DHT22;7125;48.106;11.544;2023-03-31T09:30:34;10.20;99.90
14097;DHT22;7125;48.106;11.544;2023-03-31T09:33:09;10.30;99.90
14097;DHT22;7125;48.106;11.544;2023-03-31T09:35:37;10.50;99.90
14097;DHT22;7125;48.106;11.544;2023-03-31T09:38:04;10.50;99.90
14097;DHT22;7125;48.106;11.544;2023-03-31T09:40:32;10.80;99.90
14097;DHT22;7125;48.106;11.544;2023-03-31T09:43:01;11.00;99.90
14097;DHT22;7125;48.106;11.544;2023-03-31T09:45:30;11.20;99.90
14097;DHT22;7125;48.106;11.544;2023-03-31T09:48:01;11.40;99.90
14097;DHT22;7125;48.106;11.544;2023-03-31T09:50:46;11.50;99.90
14097;DHT22;7125;48.106;11.544;2023-03-31T09:53:20;11.50;99.90
14097;DHT22;7125;48.106;11.544;2023-03-31T09:55:51;11.50;99.90
14097;DHT22;7125;48.106;11.544;2023-03-31T09:58:22;11.40;99.90
14097;DHT22;7125;48.106;11.544;2023-03-31T10:00:59;11.40;99.90
14097;DHT22;7125;48.106;11.544;2023-03-31T10:03:30;11.50;99.90
14097;DHT22;7125;48.106;11.544;2023-03-31T10:06:07;11.70;99.90
14097;DHT22;7125;48.106;11.544;2023-03-31T10:08:38;11.80;99.90
14097;DHT22;7125;48.106;11.544;2023-03-31T10:11:09;11.80;99.90
14097;DHT22;7125;48.106;11.544;2023-03-31T10:13:43;11.70;99.90
14097;DHT22;7125;48.106;11.544;2023-03-31T10:16:13;11.80;99.90
14097;DHT22;7125;48.106;11.544;2023-03-31T10:18:42;11.80;99.90
14097;DHT22;7125;48.106;11.544;2023-03-31T10:21:19;12.00;99.90
14097;DHT22;7125;48.106;11.544;2023-03-31T10:23:48;12.00;99.90
14097;DHT22;7125;48.106;11.544;2023-03-31T10:26:17;12.00;99.90
14097;DHT22;7125;48.106;11.544;2023-03-31T10:28:47;12.10;99.90
14097;DHT22;7125;48.106;11.544;2023-03-31T10:31:17;12.10;99.90
14097;DHT22;7125;48.106;11.544;2023-03-31T10:33:47;12.10;99.90
14097;DHT22;7125;48.106;11.544;2023-03-31T10:36:20;12.20;99.90
14097;DHT22;7125;48.106;11.544;2023-03-31T10:38:49;12.40;99.90
14097;DHT22;7125;48.106;11.544;2023-03-31T10:41:19;12.50;99.90
14097;DHT22;7125;48.106;11.544;2023-03-31T10:43:49;12.70;99.90
14097;DHT22;7125;48.106;11.544;2023-03-31T10:46:17;12.90;99.90
14097;DHT22;7125;48.106;11.544;2023-03-31T10:48:45;13.10;99.90
14097;DHT22;7125;48.106;11.544;2023-03-31T10:51:15;13.20;99.90
14097;DHT22;7125;48.106;11.544;2023-03-31T10:53:46;13.30;99.90
14097;DHT22;7125;48.106;11.544;2023-03-31T10:56:26;13.50;99.90
14097;DHT22;7125;48.106;11.544;2023-03-31T10:59:07;13.70;99.90
14097;DHT22;7125;48.106;11.544;2023-03-31T11:01:54;13.70;99.90
14097;DHT22;7125;48.106;11.544;2023-03-31T11:07:48;13.50;99.90
14097;DHT22;7125;48.106;11.544;2023-03-31T11:10:40;13.40;99.90
14097;DHT22;7125;48.106;11.544;2023-03-31T11:13:16;13.20;99.90
14097;DHT22;7125;48.106;11.544;2023-03-31T11:15:50;13.10;99.90
14097;DHT22;7125;48.106;11.544;2023-03-31T11:18:41;12.90;99.90
14097;DHT22;7125;48.106;11.544;2023-03-31T11:21:18;12.80;99.90
14097;DHT22;7125;48.106;11.544;2023-03-31T11:23:53;12.50;99.90
14097;DHT22;7125;48.106;11.544;2023-03-31T11:26:35;12.20;99.90
14097;DHT22;7125;48.106;11.544;2023-03-31T11:29:13;11.70;99.90
14097;DHT22;7125;48.106;11.544;2023-03-31T11:31:50;11.00;99.90
14097;DHT22;7125;48.106;11.544;2023-03-31T11:34:38;10.40;99.90
14097;DHT22;7125;48.106;11.544;2023-03-31T11:37:40;10.00;99.90
14097;DHT22;7125;48.106;11.544;2023-03-31T11:40:27;9.60;99.90
14097;DHT22;7125;48.106;11.544;2023-03-31T11:43:00;9.50;99.90
14097;DHT22;7125;48.106;11.544;2023-03-31T11:45:30;9.40;99.90
14097;DHT22;7125;48.106;11.544;2023-03-31T11:48:02;9.40;99.90
14097;DHT22;7125;48.106;11.544;2023-03-31T11:50:33;9.40;99.90
14097;DHT22;7125;48.106;11.544;2023-03-31T11:53:06;9.50;99.90
14097;DHT22;7125;48.106;11.544;2023-03-31T11:55:38;9.70;99.90
14097;DHT22;7125;48.106;11.544;2023-03-31T11:58:11;9.80;99.90
14097;DHT22;7125;48.106;11.544;2023-03-31T12:00:42;9.90;99.90
14097;DHT22;7125;48.106;11.544;2023-03-31T12:03:12;10.10;99.90
14097;DHT22;7125;48.106;11.544;2023-03-31T12:05:44;10.30;99.90
14097;DHT22;7125;48.106;11.544;2023-03-31T12:08:15;10.50;99.90
14097;DHT22;7125;48.106;11.544;2023-03-31T12:10:47;10.80;99.90
14097;DHT22;7125;48.106;11.544;2023-03-31T12:13:44;11.00;99.90
14097;DHT22;7125;48.106;11.544;2023-03-31T12:16:16;11.40;99.90
14097;DHT22;7125;48.106;11.544;2023-03-31T12:18:56;11.70;99.90
14097;DHT22;7125;48.106;11.544;2023-03-31T12:21:24;12.00;99.90
14097;DHT22;7125;48.106;11.544;2023-03-31T12:23:52;12.10;99.90
14097;DHT22;7125;48.106;11.544;2023-03-31T12:26:30;12.20;99.90
14097;DHT22;7125;48.106;11.544;2023-03-31T12:29:04;12.20;99.90
14097;DHT22;7125;48.106;11.544;2023-03-31T12:31:35;12.20;99.90
14097;DHT22;7125;48.106;11.544;2023-03-31T12:34:09;12.10;99.90
14097;DHT22;7125;48.106;11.544;2023-03-31T12:36:46;12.20;99.90
14097;DHT22;7125;48.106;11.544;2023-03-31T12:39:24;12.30;99.90
14097;DHT22;7125;48.106;11.544;2023-03-31T12:42:10;12.30;99.90
14097;DHT22;7125;48.106;11.544;2023-03-31T12:44:51;12.20;99.90
14097;DHT22;7125;48.106;11.544;2023-03-31T12:47:33;12.30;99.90
14097;DHT22;7125;48.106;11.544;2023-03-31T12:50:30;12.30;99.90
14097;DHT22;7125;48.106;11.544;2023-03-31T12:53:04;12.20;99.90
14097;DHT22;7125;48.106;11.544;2023-03-31T12:55:37;12.20;99.90
14097;DHT22;7125;48.106;11.544;2023-03-31T12:58:36;12.10;99.90
14097;DHT22;7125;48.106;11.544;2023-03-31T13:01:06;12.10;99.90
14097;DHT22;7125;48.106;11.544;2023-03-31T13:03:39;12.30;99.90
14097;DHT22;7125;48.106;11.544;2023-03-31T13:06:09;12.50;99.90
14097;DHT22;7125;48.106;11.544;2023-03-31T13:08:51;12.60;99.90
14097;DHT22;7125;48.106;11.544;2023-03-31T13:11:21;12.50;99.90
14097;DHT22;7125;48.106;11.544;2023-03-31T13:13:58;12.30;99.90
14097;DHT22;7125;48.106;11.544;2023-03-31T13:16:26;12.20;99.90
14097;DHT22;7125;48.106;11.544;2023-03-31T13:18:54;12.00;99.90
14097;DHT22;7125;48.106;11.544;2023-03-31T13:21:22;11.90;99.90
14097;DHT22;7125;48.106;11.544;2023-03-31T13:23:50;11.90;99.90
14097;DHT22;7125;48.106;11.544;2023-03-31T13:26:36;11.80;99.90
14097;DHT22;7125;48.106;11.544;2023-03-31T13:29:21;11.50;99.90
14097;DHT22;7125;48.106;11.544;2023-03-31T13:32:18;11.40;99.90
14097;DHT22;7125;48.106;11.544;2023-03-31T13:34:55;11.50;99.90
14097;DHT22;7125;48.106;11.544;2023-03-31T13:37:48;11.40;99.90
14097;DHT22;7125;48.106;11.544;2023-03-31T13:43:37;11.80;99.90
14097;DHT22;7125;48.106;11.544;2023-03-31T13:46:34;12.20;99.90
14097;DHT22;7125;48.106;11.544;2023-03-31T13:49:38;12.70;99.90
14097;DHT22;7125;48.106;11.544;2023-03-31T13:52:10;12.90;99.90
14097;DHT22;7125;48.106;11.544;2023-03-31T13:58:18;13.40;99.90
14097;DHT22;7125;48.106;11.544;2023-03-31T14:00:58;13.50;99.90
14097;DHT22;7125;48.106;11.544;2023-03-31T14:03:43;13.80;99.90
14097;DHT22;7125;48.106;11.544;2023-03-31T14:06:22;14.10;99.90
14097;DHT22;7125;48.106;11.544;2023-03-31T14:08:51;14.10;99.90
14097;DHT22;7125;48.106;11.544;2023-03-31T14:11:23;13.90;99.90
14097;DHT22;7125;48.106;11.544;2023-03-31T14:14:05;13.70;99.90
14097;DHT22;7125;48.106;11.544;2023-03-31T14:16:36;13.60;99.90
14097;DHT22;7125;48.106;11.544;2023-03-31T14:19:31;13.40;99.90
14097;DHT22;7125;48.106;11.544;2023-03-31T14:22:08;13.10;99.90
14097;DHT22;7125;48.106;11.544;2023-03-31T14:24:42;12.90;99.90
14097;DHT22;7125;48.106;11.544;2023-03-31T14:27:24;12.70;99.90
14097;DHT22;7125;48.106;11.544;2023-03-31T14:30:01;12.50;99.90
14097;DHT22;7125;48.106;11.544;2023-03-31T14:32:38;12.50;99.90
14097;DHT22;7125;48.106;11.544;2023-03-31T14:35:24;12.30;99.90
14097;DHT22;7125;48.106;11.544;2023-03-31T14:37:56;12.10;99.90
14097;DHT22;7125;48.106;11.544;2023-03-31T14:40:24;11.90;99.90
14097;DHT22;7125;48.106;11.544;2023-03-31T14:42:52;11.80;99.90
14097;DHT22;7125;48.106;11.544;2023-03-31T14:45:22;11.30;99.90
14097;DHT22;7125;48.106;11.544;2023-03-31T14:47:54;10.80;99.90
14097;DHT22;7125;48.106;11.544;2023-03-31T14:50:28;10.30;99.90
14097;DHT22;7125;48.106;11.544;2023-03-31T14:52:58;10.10;99.90
14097;DHT22;7125;48.106;11.544;2023-03-31T14:55:30;10.00;99.90
14097;DHT22;7125;48.106;11.544;2023-03-31T14:58:03;9.90;99.90
14097;DHT22;7125;48.106;11.544;2023-03-31T15:00:31;9.90;99.90
14097;DHT22;7125;48.106;11.544;2023-03-31T15:03:04;9.90;99.90
14097;DHT22;7125;48.106;11.544;2023-03-31T15:05:37;9.90;99.90
14097;DHT22;7125;48.106;11.544;2023-03-31T15:08:13;10.10;99.90
14097;DHT22;7125;48.106;11.544;2023-03-31T15:10:43;10.60;99.90
14097;DHT22;7125;48.106;11.544;2023-03-31T15:13:18;11.20;99.90
14097;DHT22;7125;48.106;11.544;2023-03-31T15:15:47;11.60;99.90
14097;DHT22;7125;48.106;11.544;2023-03-31T15:18:15;11.80;99.90
14097;DHT22;7125;48.106;11.544;2023-03-31T15:20:46;11.80;99.90
14097;DHT22;7125;48.106;11.544;2023-03-31T15:23:20;11.80;99.90
14097;DHT22;7125;48.106;11.544;2023-03-31T15:25:52;11.80;99.90
14097;DHT22;7125;48.106;11.544;2023-03-31T15:28:23;11.90;99.90
14097;DHT22;7125;48.106;11.544;2023-03-31T15:30:53;12.00;99.90
14097;DHT22;7125;48.106;11.544;2023-03-31T15:33:30;12.00;99.90
14097;DHT22;7125;48.106;11.544;2023-03-31T15:36:03;12.00;99.90
14097;DHT22;7125;48.106;11.544;2023-03-31T15:38:30;12.00;99.90
14097;DHT22;7125;48.106;11.544;2023-03-31T15:41:15;11.90;99.90
14097;DHT22;7125;48.106;11.544;2023-03-31T15:43:48;11.70;99.90
14097;DHT22;7125;48.106;11.544;2023-03-31T15:46:19;11.60;99.90
14097;DHT22;7125;48.106;11.544;2023-03-31T15:48:52;11.50;99.90
14097;DHT22;7125;48.106;11.544;2023-03-31T15:51:24;11.50;99.90
14097;DHT22;7125;48.106;11.544;2023-03-31T15:53:54;11.50;99.90
14097;DHT22;7125;48.106;11.544;2023-03-31T15:56:28;11.60;99.90
14097;DHT22;7125;48.106;11.544;2023-03-31T15:59:02;11.60;99.90
14097;DHT22;7125;48.106;11.544;2023-03-31T16:01:33;11.60;99.90
14097;DHT22;7125;48.106;11.544;2023-03-31T16:04:04;11.70;99.90
14097;DHT22;7125;48.106;11.544;2023-03-31T16:06:41;11.80;99.90
14097;DHT22;7125;48.106;11.544;2023-03-31T16:09:12;11.80;99.90
14097;DHT22;7125;48.106;11.544;2023-03-31T16:11:43;11.90;99.90
14097;DHT22;7125;48.106;11.544;2023-03-31T16:14:15;11.90;99.90
14097;DHT22;7125;48.106;11.544;2023-03-31T16:16:48;12.00;99.90
14097;DHT22;7125;48.106;11.544;2023-03-31T16:19:17;12.00;99.90
14097;DHT22;7125;48.106;11.544;2023-03-31T16:21:49;12.00;99.90
14097;DHT22;7125;48.106;11.544;2023-03-31T16:24:18;12.00;99.90
14097;DHT22;7125;48.106;11.544;2023-03-31T16:26:47;12.00;99.90
14097;DHT22;7125;48.106;11.544;2023-03-31T16:29:19;12.00;99.90
14097;DHT22;7125;48.106;11.544;2023-03-31T16:31:49;12.00;99.90
14097;DHT22;7125;48.106;11.544;2023-03-31T16:34:31;11.90;99.90
14097;DHT22;7125;48.106;11.544;2023-03-31T16:36:59;11.90;99.90
14097;DHT22;7125;48.106;11.544;2023-03-31T16:39:32;11.80;99.90
14097;DHT22;7125;48.106;11.544;2023-03-31T16:42:00;11.70;99.90